Time;durP1;ratioP1;P1;durP2;ratioP2;P2;SDS_P1;SDS_P2;PMS_P1;PMS_P2;Temp;Humidity;BMP_temperature;BMP_pressure;BME280_temperature;BME280_humidity;BME280_pressure;Samples;Min_cycle;Max_cycle;Signal;HPM_P1;HPM_P2
2023/08/14 00:00:36;;;;;;;;;;;22.70;60.00;;;;;;5100104;27;20325;-59
2023/08/14 00:03:03;;;;;;;;;;;22.70;60.00;;;;;;5114097;27;19931;-59
2023/08/14 00:05:30;;;;;;;;;;;22.70;60.00;;;;;;5103419;27;19920;-59
2023/08/14 00:07:56;;;;;;;;;;;22.70;59.90;;;;;;5114289;27;19952;-59
2023/08/14 00:10:23;;;;;;;;;;;22.70;59.90;;;;;;5105457;28;19927;-60
2023/08/14 00:12:50;;;;;;;;;;;22.70;59.90;;;;;;5113559;27;19924;-59
2023/08/14 00:15:17;;;;;;;;;;;22.70;59.90;;;;;;5120822;27;19923;-59
2023/08/14 00:17:44;;;;;;;;;;;22.70;60.00;;;;;;5105747;27;19972;-59
2023/08/14 00:20:11;;;;;;;;;;;22.70;59.90;;;;;;5098871;28;19924;-59
2023/08/14 00:22:38;;;;;;;;;;;22.70;59.90;;;;;;5112077;27;19930;-59
2023/08/14 00:25:05;;;;;;;;;;;22.60;59.80;;;;;;5128527;27;19931;-60
2023/08/14 00:27:32;;;;;;;;;;;22.70;60.60;;;;;;5104345;28;19969;-59
2023/08/14 00:29:59;;;;;;;;;;;22.70;59.90;;;;;;5119795;27;19945;-59
2023/08/14 00:32:27;;;;;;;;;;;22.70;59.90;;;;;;5105685;27;19927;-59
2023/08/14 00:34:54;;;;;;;;;;;22.60;59.80;;;;;;5101463;28;19927;-59
2023/08/14 00:37:22;;;;;;;;;;;22.70;59.90;;;;;;5114358;27;19924;-58
2023/08/14 00:39:49;;;;;;;;;;;22.60;59.80;;;;;;5106302;28;19919;-58
2023/08/14 00:42:16;;;;;;;;;;;22.60;59.70;;;;;;5120793;27;19924;-58
2023/08/14 00:44:42;;;;;;;;;;;22.60;59.70;;;;;;5102609;28;19930;-58
2023/08/14 00:47:09;;;;;;;;;;;22.60;59.70;;;;;;5114429;28;19982;-58
2023/08/14 00:49:37;;;;;;;;;;;22.60;59.70;;;;;;5105671;28;19931;-58
2023/08/14 00:52:04;;;;;;;;;;;22.60;59.70;;;;;;5096158;28;19977;-58
2023/08/14 00:54:31;;;;;;;;;;;22.70;59.80;;;;;;5120973;28;19928;-58
2023/08/14 00:56:58;;;;;;;;;;;22.60;59.70;;;;;;5100843;28;19924;-58
2023/08/14 00:59:25;;;;;;;;;;;22.60;59.70;;;;;;5102740;28;20432;-58
2023/08/14 01:01:51;;;;;;;;;;;22.60;59.70;;;;;;5114814;27;19980;-58
2023/08/14 01:04:18;;;;;;;;;;;22.60;59.70;;;;;;5115614;27;19923;-58
2023/08/14 01:06:46;;;;;;;;;;;22.60;59.70;;;;;;5101637;27;19923;-61
2023/08/14 01:09:13;;;;;;;;;;;22.60;59.70;;;;;;5100772;27;19983;-58
2023/08/14 01:11:40;;;;;;;;;;;22.60;59.70;;;;;;5109009;27;19927;-58
2023/08/14 01:14:08;;;;;;;;;;;22.60;59.70;;;;;;5117739;27;19924;-56
2023/08/14 01:16:36;;;;;;;;;;;22.60;59.60;;;;;;5107263;27;19988;-58
2023/08/14 01:19:02;;;;;;;;;;;22.60;59.70;;;;;;5109072;27;19928;-57
2023/08/14 01:21:33;;;;;;;;;;;22.60;59.60;;;;;;5099268;27;19936;-58
2023/08/14 01:24:11;;;;;;;;;;;22.60;59.60;;;;;;5117995;27;19919;-58
2023/08/14 01:26:39;;;;;;;;;;;22.60;59.60;;;;;;5127436;27;19984;-58
2023/08/14 01:29:06;;;;;;;;;;;22.60;59.60;;;;;;5109268;27;19928;-58
2023/08/14 01:31:33;;;;;;;;;;;22.60;59.60;;;;;;5107958;27;19934;-57
2023/08/14 01:34:00;;;;;;;;;;;22.60;59.60;;;;;;5111239;27;20005;-59
2023/08/14 01:36:27;;;;;;;;;;;22.60;59.60;;;;;;5108302;27;19927;-59
2023/08/14 01:38:55;;;;;;;;;;;22.60;59.60;;;;;;5112144;27;19928;-58
2023/08/14 01:41:23;;;;;;;;;;;22.60;59.60;;;;;;5126845;27;19924;-58
2023/08/14 01:43:53;;;;;;;;;;;22.60;59.60;;;;;;5105381;28;19938;-59
2023/08/14 01:46:20;;;;;;;;;;;22.60;59.60;;;;;;5110281;28;19924;-58
2023/08/14 01:48:46;;;;;;;;;;;22.60;59.60;;;;;;5123599;27;19924;-58
2023/08/14 01:51:13;;;;;;;;;;;22.60;59.50;;;;;;5100795;28;19928;-58
2023/08/14 01:53:40;;;;;;;;;;;22.60;59.50;;;;;;5121266;27;19955;-58
2023/08/14 01:56:07;;;;;;;;;;;22.60;59.50;;;;;;5107610;28;19924;-58
2023/08/14 01:58:34;;;;;;;;;;;22.60;59.50;;;;;;5107241;28;20365;-57
2023/08/14 02:01:02;;;;;;;;;;;22.60;59.50;;;;;;5102651;28;19938;-58
2023/08/14 02:03:29;;;;;;;;;;;22.60;59.50;;;;;;5104627;28;19968;-58
2023/08/14 02:05:56;;;;;;;;;;;22.60;59.50;;;;;;5103242;28;19927;-58
2023/08/14 02:08:23;;;;;;;;;;;22.60;59.50;;;;;;5103743;28;19924;-58
2023/08/14 02:10:50;;;;;;;;;;;22.60;59.50;;;;;;5104877;28;20372;-58
2023/08/14 02:13:16;;;;;;;;;;;22.60;59.50;;;;;;5094211;28;19924;-58
2023/08/14 02:15:45;;;;;;;;;;;22.60;59.50;;;;;;5105169;28;19935;-58
2023/08/14 02:18:13;;;;;;;;;;;22.60;59.50;;;;;;5110201;28;19935;-58
2023/08/14 02:20:45;;;;;;;;;;;22.60;59.50;;;;;;5098420;28;20396;-57
2023/08/14 02:23:11;;;;;;;;;;;22.60;59.40;;;;;;5115690;28;19923;-58
2023/08/14 02:25:39;;;;;;;;;;;22.60;59.40;;;;;;5106702;28;19931;-58
2023/08/14 02:28:06;;;;;;;;;;;22.60;59.50;;;;;;5113918;28;19953;-58
2023/08/14 02:30:33;;;;;;;;;;;22.60;59.40;;;;;;5121543;28;19924;-58
2023/08/14 02:33:00;;;;;;;;;;;22.60;59.40;;;;;;5121393;27;19946;-58
2023/08/14 02:35:28;;;;;;;;;;;22.60;59.40;;;;;;5103191;28;19924;-58
2023/08/14 02:37:54;;;;;;;;;;;22.60;59.40;;;;;;5105223;28;19976;-58
2023/08/14 02:40:21;;;;;;;;;;;22.60;59.40;;;;;;5124892;28;19945;-58
2023/08/14 02:42:48;;;;;;;;;;;22.60;59.40;;;;;;5111399;28;19924;-58
2023/08/14 02:45:15;;;;;;;;;;;22.60;59.40;;;;;;5102840;28;19928;-58
2023/08/14 02:47:42;;;;;;;;;;;22.60;59.30;;;;;;5102882;28;19924;-58
2023/08/14 02:50:08;;;;;;;;;;;22.60;59.30;;;;;;5106717;28;19928;-58
2023/08/14 02:52:37;;;;;;;;;;;22.50;59.30;;;;;;5114284;28;19928;-58
2023/08/14 02:55:04;;;;;;;;;;;22.50;59.30;;;;;;5036699;28;1847506;-58
2023/08/14 02:57:30;;;;;;;;;;;22.50;59.30;;;;;;5099486;27;19924;-58
2023/08/14 02:59:57;;;;;;;;;;;22.50;59.30;;;;;;5116368;27;20009;-58
2023/08/14 03:02:24;;;;;;;;;;;22.50;59.30;;;;;;5108801;27;20041;-58
2023/08/14 03:04:51;;;;;;;;;;;22.50;59.30;;;;;;5106778;27;19924;-58
2023/08/14 03:07:17;;;;;;;;;;;22.50;59.30;;;;;;5095825;28;19976;-58
2023/08/14 03:09:45;;;;;;;;;;;22.50;59.30;;;;;;5098112;28;19927;-59
2023/08/14 03:12:12;;;;;;;;;;;22.50;59.30;;;;;;5102252;28;19924;-57
2023/08/14 03:14:39;;;;;;;;;;;22.50;59.30;;;;;;5104479;27;19931;-58
2023/08/14 03:17:06;;;;;;;;;;;22.50;59.30;;;;;;5094967;28;19920;-58
2023/08/14 03:19:33;;;;;;;;;;;22.50;59.30;;;;;;5094802;28;19923;-57
2023/08/14 03:21:59;;;;;;;;;;;22.50;59.30;;;;;;5123094;27;19932;-58
2023/08/14 03:24:26;;;;;;;;;;;22.50;59.30;;;;;;5096311;28;19931;-58
2023/08/14 03:26:54;;;;;;;;;;;22.50;59.30;;;;;;5125235;27;19968;-57
2023/08/14 03:29:22;;;;;;;;;;;22.50;59.30;;;;;;5106540;28;19986;-58
2023/08/14 03:31:48;;;;;;;;;;;22.50;59.20;;;;;;5105406;28;19927;-58
2023/08/14 03:34:15;;;;;;;;;;;22.50;59.20;;;;;;5102854;27;19947;-57
2023/08/14 03:36:42;;;;;;;;;;;22.50;59.30;;;;;;5097501;27;19923;-57
2023/08/14 03:39:08;;;;;;;;;;;22.60;59.30;;;;;;5103721;28;19977;-58
2023/08/14 03:41:35;;;;;;;;;;;22.50;59.20;;;;;;5129731;27;20470;-58
2023/08/14 03:44:03;;;;;;;;;;;22.50;59.20;;;;;;5103667;28;19927;-57
2023/08/14 03:46:30;;;;;;;;;;;22.50;59.20;;;;;;5124537;27;19932;-58
2023/08/14 03:48:57;;;;;;;;;;;22.50;59.20;;;;;;5108420;27;19928;-57
2023/08/14 03:51:24;;;;;;;;;;;22.50;59.20;;;;;;5113872;27;19972;-58
2023/08/14 03:53:50;;;;;;;;;;;22.50;59.20;;;;;;5107677;27;19924;-58
2023/08/14 03:56:17;;;;;;;;;;;22.50;59.20;;;;;;5105181;27;19929;-59
2023/08/14 03:58:44;;;;;;;;;;;22.50;59.20;;;;;;5106543;27;19932;-58
2023/08/14 04:01:12;;;;;;;;;;;22.50;59.20;;;;;;5114761;27;20394;-57
2023/08/14 04:03:39;;;;;;;;;;;22.50;59.20;;;;;;5096904;27;19924;-58
2023/08/14 04:06:06;;;;;;;;;;;22.50;59.20;;;;;;5114923;27;19924;-58
2023/08/14 04:08:33;;;;;;;;;;;22.50;59.20;;;;;;5105692;27;19927;-57
2023/08/14 04:10:59;;;;;;;;;;;22.50;59.10;;;;;;5098981;27;20058;-57
2023/08/14 04:13:26;;;;;;;;;;;22.50;59.10;;;;;;5132249;27;19984;-58
2023/08/14 04:15:59;;;;;;;;;;;22.50;59.10;;;;;;5114512;27;19923;-58
2023/08/14 04:18:27;;;;;;;;;;;22.50;59.10;;;;;;5097035;28;19959;-58
2023/08/14 04:20:54;;;;;;;;;;;22.50;59.10;;;;;;5113339;27;19924;-58
2023/08/14 04:23:21;;;;;;;;;;;22.50;59.00;;;;;;5096255;28;19963;-58
2023/08/14 04:25:48;;;;;;;;;;;22.50;59.00;;;;;;5124699;27;19932;-57
2023/08/14 04:28:15;;;;;;;;;;;22.50;59.00;;;;;;5115495;27;19947;-58
2023/08/14 04:30:42;;;;;;;;;;;22.50;59.00;;;;;;5103523;28;19927;-58
2023/08/14 04:33:08;;;;;;;;;;;22.50;59.00;;;;;;5108485;28;19932;-58
2023/08/14 04:35:37;;;;;;;;;;;22.50;59.00;;;;;;5103800;27;19927;-57
2023/08/14 04:38:04;;;;;;;;;;;22.50;59.00;;;;;;5096668;28;19924;-58
2023/08/14 04:40:31;;;;;;;;;;;22.50;59.00;;;;;;5102220;28;19924;-57
2023/08/14 04:42:58;;;;;;;;;;;22.50;59.00;;;;;;5097641;27;19923;-58
2023/08/14 04:45:24;;;;;;;;;;;22.50;59.00;;;;;;5097288;28;19928;-57
2023/08/14 04:47:51;;;;;;;;;;;22.50;59.00;;;;;;5112667;28;20352;-58
2023/08/14 04:50:18;;;;;;;;;;;22.50;59.00;;;;;;5123848;28;20333;-57
2023/08/14 04:52:46;;;;;;;;;;;22.50;59.00;;;;;;5105850;28;19924;-58
2023/08/14 04:55:13;;;;;;;;;;;22.50;59.00;;;;;;5105387;28;19924;-57
2023/08/14 04:57:40;;;;;;;;;;;22.50;59.00;;;;;;5099604;28;19984;-58
2023/08/14 05:00:08;;;;;;;;;;;22.50;59.00;;;;;;5101929;28;19930;-58
2023/08/14 05:02:35;;;;;;;;;;;22.40;58.90;;;;;;5115159;28;19924;-57
2023/08/14 05:05:01;;;;;;;;;;;22.40;58.90;;;;;;5105015;28;19930;-58
2023/08/14 05:07:28;;;;;;;;;;;22.50;59.00;;;;;;5100437;28;19924;-58
2023/08/14 05:09:56;;;;;;;;;;;22.40;58.90;;;;;;5106174;28;19928;-58
2023/08/14 05:12:23;;;;;;;;;;;22.40;58.90;;;;;;5098821;28;19924;-58
2023/08/14 05:14:52;;;;;;;;;;;22.50;59.00;;;;;;5125941;28;19924;-58
2023/08/14 05:17:19;;;;;;;;;;;22.40;58.90;;;;;;5103894;28;19955;-58
2023/08/14 05:19:45;;;;;;;;;;;22.50;59.00;;;;;;5104570;28;19923;-58
2023/08/14 05:22:12;;;;;;;;;;;22.40;58.90;;;;;;5101180;28;19985;-58
2023/08/14 05:24:39;;;;;;;;;;;22.50;59.00;;;;;;5095155;28;19927;-58
2023/08/14 05:27:07;;;;;;;;;;;22.40;58.90;;;;;;5110720;28;20413;-59
2023/08/14 05:29:34;;;;;;;;;;;22.40;58.90;;;;;;5102418;28;20012;-58
2023/08/14 05:32:00;;;;;;;;;;;22.40;58.90;;;;;;5108326;28;20341;-58
2023/08/14 05:34:27;;;;;;;;;;;22.40;59.00;;;;;;5103767;28;19923;-58
2023/08/14 05:36:54;;;;;;;;;;;22.40;59.00;;;;;;5105486;28;20373;-58
2023/08/14 05:39:21;;;;;;;;;;;22.40;59.00;;;;;;5119434;28;20236;-59
2023/08/14 05:41:49;;;;;;;;;;;22.40;59.00;;;;;;5101274;28;19924;-57
2023/08/14 05:44:17;;;;;;;;;;;22.40;59.00;;;;;;5100833;28;19924;-58
2023/08/14 05:46:44;;;;;;;;;;;22.40;59.00;;;;;;5104033;28;19954;-57
2023/08/14 05:49:11;;;;;;;;;;;22.40;59.00;;;;;;5109897;27;19977;-58
2023/08/14 05:51:37;;;;;;;;;;;22.40;59.00;;;;;;5116477;27;20239;-57
2023/08/14 05:54:04;;;;;;;;;;;22.40;59.00;;;;;;5130339;27;19931;-57
2023/08/14 05:56:31;;;;;;;;;;;22.40;59.00;;;;;;5108297;27;19927;-58
2023/08/14 05:58:58;;;;;;;;;;;22.40;59.00;;;;;;5111841;28;19992;-57
2023/08/14 06:01:27;;;;;;;;;;;22.50;59.70;;;;;;5129277;27;19930;-58
2023/08/14 06:03:54;;;;;;;;;;;22.40;59.10;;;;;;5122557;27;19924;-57
2023/08/14 06:06:21;;;;;;;;;;;22.40;59.10;;;;;;5104960;27;19955;-58
2023/08/14 06:08:48;;;;;;;;;;;22.40;59.10;;;;;;5116807;27;19930;-57
2023/08/14 06:11:15;;;;;;;;;;;22.40;59.10;;;;;;5135323;27;19927;-57
2023/08/14 06:13:41;;;;;;;;;;;22.50;59.20;;;;;;5110140;27;19924;-58
2023/08/14 06:16:08;;;;;;;;;;;22.50;59.30;;;;;;5101080;28;19923;-58
2023/08/14 06:18:37;;;;;;;;;;;22.50;59.30;;;;;;5104273;27;20414;-58
2023/08/14 06:21:04;;;;;;;;;;;22.40;59.20;;;;;;5108345;27;19931;-58
2023/08/14 06:23:30;;;;;;;;;;;22.40;59.20;;;;;;5113116;27;20026;-58
2023/08/14 06:25:57;;;;;;;;;;;22.40;59.20;;;;;;5113819;28;19923;-58
2023/08/14 06:28:24;;;;;;;;;;;22.40;59.20;;;;;;5111850;27;19973;-59
2023/08/14 06:30:51;;;;;;;;;;;22.40;59.20;;;;;;5099848;28;19934;-59
2023/08/14 06:33:18;;;;;;;;;;;22.50;59.30;;;;;;5125731;27;19955;-58
2023/08/14 06:35:46;;;;;;;;;;;22.50;59.30;;;;;;5094954;27;19927;-59
2023/08/14 06:38:13;;;;;;;;;;;22.50;59.30;;;;;;5094187;28;20311;-58
2023/08/14 06:40:40;;;;;;;;;;;22.50;59.30;;;;;;5112027;27;19935;-58
2023/08/14 06:43:07;;;;;;;;;;;22.50;59.30;;;;;;5092642;28;19988;-58
2023/08/14 06:45:34;;;;;;;;;;;22.50;59.40;;;;;;5100391;27;19928;-58
2023/08/14 06:48:00;;;;;;;;;;;22.50;59.40;;;;;;5095011;28;19955;-59
2023/08/14 06:50:27;;;;;;;;;;;22.50;59.40;;;;;;5094963;28;19920;-59
2023/08/14 06:52:55;;;;;;;;;;;22.50;59.40;;;;;;5094421;27;19924;-59
2023/08/14 06:55:22;;;;;;;;;;;22.50;59.40;;;;;;5115698;27;19924;-58
2023/08/14 06:57:49;;;;;;;;;;;22.50;59.40;;;;;;5085008;28;19931;-59
2023/08/14 07:00:16;;;;;;;;;;;22.50;59.40;;;;;;5088031;28;19920;-59
2023/08/14 07:02:45;;;;;;;;;;;22.50;59.40;;;;;;5110539;27;19924;-59
2023/08/14 07:05:12;;;;;;;;;;;22.50;59.50;;;;;;5080577;28;19924;-59
2023/08/14 07:07:39;;;;;;;;;;;22.50;59.50;;;;;;5078769;27;19953;-59
2023/08/14 07:10:08;;;;;;;;;;;22.50;59.50;;;;;;5073438;27;19985;-59
2023/08/14 07:12:34;;;;;;;;;;;22.60;59.60;;;;;;5072438;28;19935;-61
2023/08/14 07:15:01;;;;;;;;;;;22.60;59.60;;;;;;5095270;27;19936;-58
2023/08/14 07:17:28;;;;;;;;;;;22.60;59.60;;;;;;5079982;27;19993;-59
2023/08/14 07:19:55;;;;;;;;;;;22.60;59.70;;;;;;5070200;28;20212;-57
2023/08/14 07:22:21;;;;;;;;;;;22.60;59.70;;;;;;5100244;27;19936;-59
2023/08/14 07:24:48;;;;;;;;;;;22.60;59.70;;;;;;5083583;27;19923;-57
2023/08/14 07:27:17;;;;;;;;;;;22.60;59.70;;;;;;5113732;27;19931;-60
2023/08/14 07:29:44;;;;;;;;;;;22.60;59.70;;;;;;5093849;28;19940;-59
2023/08/14 07:32:11;;;;;;;;;;;22.60;59.80;;;;;;5105577;27;19935;-59
2023/08/14 07:34:37;;;;;;;;;;;22.60;59.80;;;;;;5102963;28;19977;-60
2023/08/14 07:37:04;;;;;;;;;;;22.60;59.80;;;;;;5094968;28;19931;-60
2023/08/14 07:39:31;;;;;;;;;;;22.60;59.90;;;;;;5098588;27;19977;-60
2023/08/14 07:41:58;;;;;;;;;;;22.70;60.00;;;;;;5101291;27;19923;-59
2023/08/14 07:44:26;;;;;;;;;;;22.70;60.10;;;;;;5098103;27;20000;-59
2023/08/14 07:46:53;;;;;;;;;;;22.70;60.10;;;;;;5096518;28;19932;-60
2023/08/14 07:49:20;;;;;;;;;;;22.70;60.10;;;;;;5103163;27;19932;-64
2023/08/14 07:51:46;;;;;;;;;;;22.70;60.30;;;;;;5075836;28;19996;-59
2023/08/14 07:54:13;;;;;;;;;;;22.70;60.20;;;;;;5080238;28;19980;-59
2023/08/14 07:56:40;;;;;;;;;;;22.70;60.30;;;;;;5104156;27;19930;-58
2023/08/14 07:59:07;;;;;;;;;;;22.70;60.30;;;;;;5082358;27;19982;-58
2023/08/14 08:01:35;;;;;;;;;;;22.80;60.50;;;;;;5077675;27;19938;-58
2023/08/14 08:04:02;;;;;;;;;;;22.80;60.50;;;;;;5082002;28;19927;-59
2023/08/14 08:06:29;;;;;;;;;;;22.80;60.60;;;;;;5093060;28;19932;-59
2023/08/14 08:08:56;;;;;;;;;;;22.80;60.60;;;;;;5093647;27;20437;-59
2023/08/14 08:11:23;;;;;;;;;;;22.80;60.60;;;;;;5080965;28;19964;-58
2023/08/14 08:13:49;;;;;;;;;;;22.80;60.60;;;;;;5109938;27;19963;-59
2023/08/14 08:16:16;;;;;;;;;;;22.80;60.60;;;;;;5108063;28;19968;-59
2023/08/14 08:18:45;;;;;;;;;;;22.90;60.70;;;;;;5100479;27;19930;-59
2023/08/14 08:21:11;;;;;;;;;;;22.80;60.60;;;;;;5092474;28;19927;-60
2023/08/14 08:23:38;;;;;;;;;;;22.90;60.70;;;;;;5112031;27;19931;-59
2023/08/14 08:26:05;;;;;;;;;;;22.90;60.80;;;;;;5099315;28;19923;-58
2023/08/14 08:28:32;;;;;;;;;;;22.90;60.80;;;;;;5116661;27;19928;-59
2023/08/14 08:30:59;;;;;;;;;;;22.90;60.80;;;;;;5094206;28;19932;-61
2023/08/14 08:33:25;;;;;;;;;;;22.90;60.90;;;;;;5095351;28;19924;-60
2023/08/14 08:35:53;;;;;;;;;;;22.90;61.00;;;;;;5094496;28;19924;-60
2023/08/14 08:38:20;;;;;;;;;;;22.90;61.10;;;;;;5093250;28;19927;-60
2023/08/14 08:40:48;;;;;;;;;;;22.90;61.10;;;;;;5093505;28;19980;-58
2023/08/14 08:43:15;;;;;;;;;;;23.00;61.30;;;;;;5111596;28;19928;-60
2023/08/14 08:45:41;;;;;;;;;;;23.00;61.20;;;;;;5093499;27;19931;-60
2023/08/14 08:48:08;;;;;;;;;;;23.00;61.30;;;;;;5097067;28;19923;-60
2023/08/14 08:50:35;;;;;;;;;;;23.00;61.40;;;;;;5093591;28;20018;-59
2023/08/14 08:53:03;;;;;;;;;;;23.00;61.30;;;;;;5114025;28;19927;-59
2023/08/14 08:55:30;;;;;;;;;;;23.00;61.40;;;;;;5088938;28;19927;-59
2023/08/14 08:57:58;;;;;;;;;;;23.00;61.50;;;;;;5092786;28;19924;-60
2023/08/14 09:00:25;;;;;;;;;;;23.00;61.50;;;;;;5111997;28;19924;-59
2023/08/14 09:02:51;;;;;;;;;;;23.00;61.50;;;;;;5090818;28;19923;-59
2023/08/14 09:05:18;;;;;;;;;;;23.00;61.50;;;;;;5088228;28;19976;-59
2023/08/14 09:07:45;;;;;;;;;;;23.10;61.60;;;;;;5094022;28;20278;-60
2023/08/14 09:10:13;;;;;;;;;;;23.10;61.60;;;;;;5085603;28;19935;-62
2023/08/14 09:12:40;;;;;;;;;;;23.10;61.60;;;;;;5093156;28;20015;-60
2023/08/14 09:15:07;;;;;;;;;;;23.10;61.60;;;;;;5085829;28;19988;-63
2023/08/14 09:17:34;;;;;;;;;;;23.10;61.70;;;;;;5118473;27;20040;-61
2023/08/14 09:20:00;;;;;;;;;;;23.10;61.60;;;;;;5091221;28;19927;-61
2023/08/14 09:22:27;;;;;;;;;;;23.10;61.60;;;;;;5091691;27;19935;-62
2023/08/14 09:24:54;;;;;;;;;;;23.10;61.60;;;;;;5102071;27;19927;-61
2023/08/14 09:27:23;;;;;;;;;;;23.10;61.60;;;;;;5098668;27;20376;-62
2023/08/14 09:29:51;;;;;;;;;;;23.10;61.70;;;;;;5095557;28;20022;-62
2023/08/14 09:32:18;;;;;;;;;;;23.20;61.80;;;;;;5099793;27;19923;-62
2023/08/14 09:34:44;;;;;;;;;;;23.20;61.70;;;;;;5098639;27;20200;-61
2023/08/14 09:37:11;;;;;;;;;;;23.20;61.70;;;;;;5116863;27;19932;-61
2023/08/14 09:39:38;;;;;;;;;;;23.20;61.70;;;;;;5108942;28;19923;-60
2023/08/14 09:42:05;;;;;;;;;;;23.20;61.70;;;;;;5092992;28;19928;-61
2023/08/14 09:44:33;;;;;;;;;;;23.20;61.70;;;;;;5107799;28;20183;-62
2023/08/14 09:47:00;;;;;;;;;;;23.20;61.60;;;;;;5095908;27;19935;-63
2023/08/14 09:49:27;;;;;;;;;;;23.20;61.70;;;;;;5134381;27;19924;-61
2023/08/14 09:51:55;;;;;;;;;;;23.20;61.60;;;;;;5123864;27;19924;-62
2023/08/14 09:54:30;;;;;;;;;;;23.20;61.60;;;;;;5094711;28;19992;-62
2023/08/14 09:56:59;;;;;;;;;;;23.20;61.60;;;;;;5092634;28;19931;-61
2023/08/14 09:59:25;;;;;;;;;;;23.20;61.60;;;;;;5100474;28;19930;-61
2023/08/14 10:01:53;;;;;;;;;;;23.20;61.60;;;;;;5096111;27;20034;-61
2023/08/14 10:04:19;;;;;;;;;;;23.20;61.60;;;;;;5116539;27;19923;-63
2023/08/14 10:06:46;;;;;;;;;;;23.20;61.60;;;;;;5118136;27;19923;-62
2023/08/14 10:09:14;;;;;;;;;;;23.20;61.60;;;;;;5097515;28;19931;-63
2023/08/14 10:11:41;;;;;;;;;;;23.20;61.60;;;;;;5095602;27;19927;-63
2023/08/14 10:14:08;;;;;;;;;;;23.20;61.50;;;;;;5097267;27;19946;-63
2023/08/14 10:16:35;;;;;;;;;;;23.20;61.50;;;;;;5112766;27;19931;-61
2023/08/14 10:19:04;;;;;;;;;;;23.30;61.60;;;;;;5114824;27;20296;-61
2023/08/14 10:21:31;;;;;;;;;;;23.30;61.60;;;;;;5098307;28;19924;-61
2023/08/14 10:23:59;;;;;;;;;;;23.30;61.60;;;;;;5097815;27;19974;-62
2023/08/14 10:26:26;;;;;;;;;;;23.30;61.60;;;;;;5096173;27;19924;-61
2023/08/14 10:28:53;;;;;;;;;;;23.30;61.60;;;;;;5095715;28;19924;-60
2023/08/14 10:31:19;;;;;;;;;;;23.30;61.60;;;;;;5108076;27;19976;-60
2023/08/14 10:33:46;;;;;;;;;;;23.30;61.60;;;;;;5096590;28;20297;-60
2023/08/14 10:36:19;;;;;;;;;;;23.30;61.60;;;;;;5117414;27;19949;-61
2023/08/14 10:38:47;;;;;;;;;;;23.30;61.60;;;;;;5091716;28;19924;-60
2023/08/14 10:41:14;;;;;;;;;;;23.30;61.60;;;;;;5104028;27;19932;-59
2023/08/14 10:43:42;;;;;;;;;;;23.30;61.60;;;;;;5112450;27;19932;-59
2023/08/14 10:46:09;;;;;;;;;;;23.30;61.60;;;;;;5095763;28;19930;-59
2023/08/14 10:48:36;;;;;;;;;;;23.30;61.60;;;;;;5111902;27;19993;-60
2023/08/14 10:51:03;;;;;;;;;;;23.30;61.60;;;;;;5101979;27;19924;-60
2023/08/14 10:53:31;;;;;;;;;;;23.30;61.60;;;;;;5125318;27;19931;-60
2023/08/14 10:55:58;;;;;;;;;;;23.30;61.60;;;;;;5096024;28;19924;-60
2023/08/14 10:58:38;;;;;;;;;;;23.30;61.60;;;;;;5097114;28;19927;-60
2023/08/14 11:01:05;;;;;;;;;;;23.30;61.60;;;;;;5094215;28;19934;-61
2023/08/14 11:03:33;;;;;;;;;;;23.30;61.60;;;;;;5107541;27;19928;-61
2023/08/14 11:06:00;;;;;;;;;;;23.30;61.60;;;;;;5098171;27;19972;-60
2023/08/14 11:08:28;;;;;;;;;;;23.30;61.60;;;;;;5114788;27;19923;-61
2023/08/14 11:10:57;;;;;;;;;;;23.30;61.60;;;;;;5097074;27;19957;-60
2023/08/14 11:13:23;;;;;;;;;;;23.30;61.60;;;;;;5114629;27;19932;-60
2023/08/14 11:15:50;;;;;;;;;;;23.30;61.60;;;;;;5098538;27;19924;-60
2023/08/14 11:18:17;;;;;;;;;;;23.30;61.60;;;;;;5094048;28;19924;-61
2023/08/14 11:20:45;;;;;;;;;;;23.30;61.60;;;;;;5096611;28;19939;-60
2023/08/14 11:23:11;;;;;;;;;;;23.30;61.60;;;;;;5099307;28;19927;-60
2023/08/14 11:25:38;;;;;;;;;;;23.30;61.60;;;;;;5114169;27;20174;-60
2023/08/14 11:28:07;;;;;;;;;;;23.30;61.60;;;;;;5116977;27;19980;-61
2023/08/14 11:30:34;;;;;;;;;;;23.30;61.60;;;;;;5094508;27;19928;-61
2023/08/14 11:33:04;;;;;;;;;;;23.30;61.70;;;;;;5091443;28;19931;-61
2023/08/14 11:35:31;;;;;;;;;;;23.30;61.70;;;;;;5092695;27;19931;-60
2023/08/14 11:37:57;;;;;;;;;;;23.30;61.70;;;;;;5116727;27;19934;-61
2023/08/14 11:40:24;;;;;;;;;;;23.30;61.90;;;;;;5079619;28;20288;-61
2023/08/14 11:42:51;;;;;;;;;;;23.40;62.00;;;;;;5105830;28;20365;-61
2023/08/14 11:45:20;;;;;;;;;;;23.40;62.00;;;;;;5090892;28;20301;-61
2023/08/14 11:47:48;;;;;;;;;;;23.40;62.00;;;;;;5088677;28;20636;-61
2023/08/14 11:50:15;;;;;;;;;;;23.40;62.00;;;;;;5091252;28;19963;-61
2023/08/14 11:52:42;;;;;;;;;;;23.40;62.00;;;;;;5115136;27;20401;-61
2023/08/14 11:55:08;;;;;;;;;;;23.40;62.00;;;;;;5092018;28;19992;-60
2023/08/14 11:57:36;;;;;;;;;;;23.40;62.00;;;;;;5094393;28;19936;-64
2023/08/14 12:00:05;;;;;;;;;;;23.40;62.00;;;;;;5091771;28;19924;-60
2023/08/14 12:02:34;;;;;;;;;;;23.40;62.00;;;;;;5113764;27;19971;-60
2023/08/14 12:05:01;;;;;;;;;;;23.40;62.00;;;;;;5092426;28;19924;-62
2023/08/14 12:07:28;;;;;;;;;;;23.40;62.00;;;;;;5091027;27;20027;-61
2023/08/14 12:09:55;;;;;;;;;;;23.40;62.00;;;;;;5118926;27;19931;-61
2023/08/14 12:12:22;;;;;;;;;;;23.50;62.10;;;;;;5110269;27;20296;-61
2023/08/14 12:14:49;;;;;;;;;;;23.50;62.00;;;;;;5097531;27;19946;-62
2023/08/14 12:17:18;;;;;;;;;;;23.50;62.00;;;;;;5088883;28;19932;-62
2023/08/14 12:19:50;;;;;;;;;;;23.50;62.10;;;;;;5119891;27;19928;-61
2023/08/14 12:22:17;;;;;;;;;;;23.50;62.00;;;;;;5123173;27;19924;-61
2023/08/14 12:24:44;;;;;;;;;;;23.50;62.00;;;;;;5093594;28;19924;-59
2023/08/14 12:27:14;;;;;;;;;;;23.50;62.00;;;;;;5072747;28;19977;-61
2023/08/14 12:29:41;;;;;;;;;;;23.50;62.00;;;;;;5091616;27;19981;-62
2023/08/14 12:32:08;;;;;;;;;;;23.50;62.00;;;;;;5094322;28;19931;-62
2023/08/14 12:34:34;;;;;;;;;;;23.50;62.00;;;;;;5090283;28;19927;-61
2023/08/14 12:37:03;;;;;;;;;;;23.50;62.00;;;;;;5105978;27;19924;-60
2023/08/14 12:39:30;;;;;;;;;;;23.50;62.00;;;;;;5087045;28;19924;-60
2023/08/14 12:41:57;;;;;;;;;;;23.50;61.90;;;;;;5093245;28;20333;-61
2023/08/14 12:44:23;;;;;;;;;;;23.50;61.90;;;;;;5090308;28;19923;-61
2023/08/14 12:46:50;;;;;;;;;;;23.50;61.80;;;;;;5089212;28;20288;-59
2023/08/14 12:49:17;;;;;;;;;;;23.50;61.90;;;;;;5125595;27;20338;-60
2023/08/14 12:51:44;;;;;;;;;;;23.50;61.80;;;;;;5094536;28;20018;-59
2023/08/14 12:54:13;;;;;;;;;;;23.50;61.80;;;;;;5113036;28;19932;-60
2023/08/14 12:56:39;;;;;;;;;;;23.60;61.90;;;;;;5128743;27;19924;-62
2023/08/14 12:59:06;;;;;;;;;;;23.50;61.80;;;;;;5097311;28;19923;-62
2023/08/14 13:01:33;;;;;;;;;;;23.60;61.80;;;;;;5098154;27;19942;-61
2023/08/14 13:04:00;;;;;;;;;;;23.60;61.80;;;;;;5118536;27;19938;-64
2023/08/14 13:06:26;;;;;;;;;;;23.60;61.80;;;;;;5097531;27;19936;-61
2023/08/14 13:08:53;;;;;;;;;;;23.60;60.90;;;;;;5119353;27;19992;-63
2023/08/14 13:11:21;;;;;;;;;;;23.60;60.60;;;;;;5094901;28;19977;-63
2023/08/14 13:13:49;;;;;;;;;;;23.60;59.60;;;;;;5115705;27;19969;-62
2023/08/14 13:16:16;;;;;;;;;;;23.60;59.50;;;;;;5109957;27;19941;-62
2023/08/14 13:18:42;;;;;;;;;;;23.60;59.50;;;;;;5101249;27;19923;-62
2023/08/14 13:21:09;;;;;;;;;;;23.60;59.60;;;;;;5130356;27;19930;-61
2023/08/14 13:23:36;;;;;;;;;;;23.60;59.50;;;;;;5099528;27;19932;-62
2023/08/14 13:26:03;;;;;;;;;;;23.70;59.70;;;;;;5096413;28;19973;-63
2023/08/14 13:28:32;;;;;;;;;;;23.70;59.60;;;;;;5096292;27;19924;-63
2023/08/14 13:30:58;;;;;;;;;;;23.70;59.60;;;;;;5099597;28;19923;-63
2023/08/14 13:33:25;;;;;;;;;;;23.70;59.70;;;;;;5096354;27;19927;-65
2023/08/14 13:35:52;;;;;;;;;;;23.80;59.70;;;;;;5122282;27;19991;-63
2023/08/14 13:38:19;;;;;;;;;;;23.80;59.60;;;;;;5128278;27;19935;-62
2023/08/14 13:40:46;;;;;;;;;;;23.90;59.50;;;;;;5093880;27;20004;-64
2023/08/14 13:43:13;;;;;;;;;;;23.90;59.60;;;;;;5094166;28;20342;-63
2023/08/14 13:45:41;;;;;;;;;;;23.90;59.60;;;;;;5114593;27;19923;-63
2023/08/14 13:48:08;;;;;;;;;;;24.00;59.70;;;;;;5099982;28;19981;-63
2023/08/14 13:50:35;;;;;;;;;;;24.00;59.60;;;;;;5114450;27;19996;-63
2023/08/14 13:53:02;;;;;;;;;;;24.00;59.50;;;;;;5122666;27;19957;-64
2023/08/14 13:55:28;;;;;;;;;;;24.00;59.70;;;;;;5090665;28;19924;-63
2023/08/14 13:57:55;;;;;;;;;;;24.10;59.80;;;;;;5096108;28;19984;-63
2023/08/14 14:00:22;;;;;;;;;;;24.10;59.50;;;;;;5094134;27;19935;-64
2023/08/14 14:02:51;;;;;;;;;;;24.10;59.20;;;;;;5092952;28;19924;-65
2023/08/14 14:05:18;;;;;;;;;;;24.10;59.20;;;;;;5100121;28;20315;-63
2023/08/14 14:07:45;;;;;;;;;;;24.10;59.00;;;;;;5099615;27;19927;-63
2023/08/14 14:10:11;;;;;;;;;;;24.10;59.00;;;;;;5099308;27;19946;-62
2023/08/14 14:12:38;;;;;;;;;;;24.20;59.10;;;;;;5095454;27;19924;-62
2023/08/14 14:15:06;;;;;;;;;;;24.20;59.10;;;;;;5103848;27;19923;-62